Flight Track Log - Related Links

Times and Time Zones

All times are in EDT time to prevent confusion due to time zone crossing. See the JEX3057 flight status page for this flight to view local times or setup timezone preferences in your user account.

Time Position Orientation Groundspeed Altitude Reporting Facility
EDT Latitude Longitude Course Direction KTS MPH feet Rate Location/Type
Thu 07:00:00 AM 35.7129 140.0897 258° West  Level Estimated
Thu 07:01:00 AM 35.6955 139.9909 258° West  Level Estimated
Thu 07:02:00 AM 35.6779 139.8921 258° West  Level Estimated
Thu 07:03:00 AM 35.6603 139.7934 258° West  Level Estimated
Thu 07:04:00 AM 35.6427 139.6947 258° West  Level Estimated
Thu 07:05:00 AM 35.6249 139.5961 258° West  Level Estimated
Thu 07:06:00 AM 35.6071 139.4975 257° West  Level Estimated
Thu 07:07:00 AM 35.5891 139.3989 257° West  Level Estimated
Thu 07:08:00 AM 35.5711 139.3004 257° West  Level Estimated
Thu 07:09:00 AM 35.5531 139.2019 257° West  Level Estimated
Thu 07:10:00 AM 35.5349 139.1035 257° West  Level Estimated
Thu 07:11:00 AM 35.5167 139.0051 257° West  Level Estimated
Thu 07:12:00 AM 35.4983 138.9068 257° West  Level Estimated
Thu 07:13:00 AM 35.4799 138.8085 257° West  Level Estimated
Thu 07:14:00 AM 35.4615 138.7103 257° West  Level Estimated
Thu 07:15:00 AM 35.4429 138.6121 257° West  Level Estimated
Thu 07:16:00 AM 35.4243 138.5139 257° West  Level Estimated
Thu 07:17:00 AM 35.4055 138.4158 257° West  Level Estimated
Thu 07:18:00 AM 35.3867 138.3178 257° West  Level Estimated
Thu 07:19:00 AM 35.3679 138.2198 257° West  Level Estimated
Thu 07:20:00 AM 35.3489 138.1218 257° West  Level Estimated
Thu 07:21:00 AM 35.3299 138.0239 257° West  Level Estimated
Thu 07:22:00 AM 35.3108 137.9260 257° West  Level Estimated
Thu 07:23:00 AM 35.2916 137.8282 257° West  Level Estimated
Thu 07:24:00 AM 35.2723 137.7304 256° West  Level Estimated
Thu 07:25:00 AM 35.2530 137.6326 256° West  Level Estimated
Thu 07:26:00 AM 35.2336 137.5350 256° West  Level Estimated
Thu 07:27:00 AM 35.2141 137.4373 256° West  Level Estimated
Thu 07:28:00 AM 35.1945 137.3397 256° West  Level Estimated
Thu 07:29:00 AM 35.1748 137.2422 256° West  Level Estimated
Thu 07:30:00 AM 35.1551 137.1447 256° West  Level Estimated
Thu 07:31:00 AM 35.1353 137.0472 256° West  Level Estimated
Thu 07:32:00 AM 35.1153 136.9498 256° West  Level Estimated
Thu 07:33:00 AM 35.0954 136.8525 256° West  Level Estimated
Thu 07:34:00 AM 35.0753 136.7552 256° West  Level Estimated
Thu 07:35:00 AM 35.0552 136.6579 256° West  Level Estimated
Thu 07:36:00 AM 35.0350 136.5607 256° West  Level Estimated
Thu 07:37:00 AM 35.0147 136.4635 256° West  Level Estimated
Thu 07:38:00 AM 34.9944 136.3664 256° West  Level Estimated
Thu 07:39:00 AM 34.9739 136.2693 256° West  Level Estimated
Thu 07:40:00 AM 34.9534 136.1723 256° West  Level Estimated
Thu 07:41:00 AM 34.9328 136.0753 256° West  Level Estimated
Thu 07:42:00 AM 34.9121 135.9784 255° West  Level Estimated
Thu 07:43:00 AM 34.8914 135.8815 255° West  Level Estimated
Thu 07:44:00 AM 34.8706 135.7847 255° West  Level Estimated
Thu 07:45:00 AM 34.8499 135.6889 255° West  Level Estimated
Thu 07:46:00 AM 34.8291 135.5931 255° West  Level Estimated
Thu 07:47:00 AM 34.8082 135.4973 255° West  Level Estimated
Thu 07:48:00 AM 34.7873 135.4016 255° West  Level Estimated
Thu 07:49:00 AM 34.7663 135.3060 255° West  Level Estimated
Thu 07:50:00 AM 34.7453 135.2104 255° West  Level Estimated
Thu 07:51:00 AM 34.7241 135.1148 255° West  Level Estimated
Thu 07:52:00 AM 34.7029 135.0193 255° West  Level Estimated
Thu 07:53:00 AM 34.6816 134.9238 255° West  Level Estimated
Thu 07:54:00 AM 34.6602 134.8284 255° West  Level Estimated
Thu 07:55:00 AM 34.6388 134.7331 255° West  Level Estimated
Thu 07:56:00 AM 34.6172 134.6378 255° West  Level Estimated
Thu 07:57:00 AM 34.5956 134.5425 255° West  Level Estimated
Thu 07:58:00 AM 34.5740 134.4473 255° West  Level Estimated
Thu 07:59:00 AM 34.5522 134.3521 255° West  Level Estimated
Thu 08:00:00 AM 34.5304 134.2570 254° West  Level Estimated
Thu 08:01:00 AM 34.5085 134.1620 254° West  Level Estimated
Thu 08:02:00 AM 34.4866 134.0670 254° West  Level Estimated
Thu 08:03:00 AM 34.4645 133.9720 254° West  Level Estimated
Thu 08:04:00 AM 34.4424 133.8771 254° West  Level Estimated
Thu 08:05:00 AM 34.4202 133.7822 254° West  Level Estimated
Thu 08:06:00 AM 34.3980 133.6874 254° West  Level Estimated
Thu 08:07:00 AM 34.3756 133.5927 254° West  Level Estimated
Thu 08:08:00 AM 34.3532 133.4979 254° West  Level Estimated
Thu 08:09:00 AM 34.3308 133.4033 254° West  Level Estimated
Thu 08:10:00 AM 34.3082 133.3087 254° West  Level Estimated
Thu 08:11:00 AM 34.2856 133.2141 254° West  Level Estimated
Thu 08:12:00 AM 34.2629 133.1196 254° West  Level Estimated
Thu 08:13:00 AM 34.2401 133.0252 254° West  Level Estimated
Thu 08:14:00 AM 34.2173 132.9308 254° West  Level Estimated
Thu 08:15:00 AM 34.1944 132.8364 254° West  Level Estimated
Thu 08:16:00 AM 34.1714 132.7421 254° West  Level Estimated
Thu 08:17:00 AM 34.1484 132.6479 254° West  Level Estimated
Thu 08:18:00 AM 34.1252 132.5537 254° West  Level Estimated
Thu 08:19:00 AM 34.1020 132.4595 253° West  Level Estimated
Thu 08:20:00 AM 34.0788 132.3654 253° West  Level Estimated
Thu 08:21:00 AM 34.0554 132.2714 253° West  Level Estimated
Thu 08:22:00 AM 34.0320 132.1774 253° West  Level Estimated
Thu 08:23:00 AM 34.0085 132.0835 253° West  Level Estimated
Thu 08:24:00 AM 33.9850 131.9896 253° West  Level Estimated
Thu 08:25:00 AM 33.9613 131.8957 253° West  Level Estimated
Thu 08:26:00 AM 33.9376 131.8020 253° West  Level Estimated
Thu 08:27:00 AM 33.9139 131.7082 253° West  Level Estimated
Thu 08:28:00 AM 33.8900 131.6145 253° West  Level Estimated
Thu 08:29:00 AM 33.8661 131.5209 253° West  Level Estimated
Thu 08:30:00 AM 33.8421 131.4274 253° West  Level Estimated
Thu 08:31:00 AM 33.8181 131.3338 253° West  Level Estimated
Thu 08:32:00 AM 33.7940 131.2404 253° West  Level Estimated
Thu 08:33:00 AM 33.7698 131.1470 253° West  Level Estimated
Thu 08:34:00 AM 33.7455 131.0536 253° West  Level Estimated
Thu 08:35:00 AM 33.7212 130.9603 253° West  Level Estimated
Thu 08:36:00 AM 33.6968 130.8670 253° West  Level Estimated
Thu 08:37:00 AM 33.6723 130.7738 253° West  Level Estimated
Thu 08:38:00 AM 33.6477 130.6807 252° West  Level Estimated
Thu 08:39:00 AM 33.6231 130.5876 252° West  Level Estimated
Thu 08:40:00 AM 33.5989 130.4963 252° West  Level Estimated
Thu 08:41:00 AM 33.5866 130.4502 252° West  Level Estimated
Thu 08:42:00 AM 33.5866 130.4502 248° West  Level Estimated
Thu 08:43:00 AM 33.5866 130.4502 248° West  Level Estimated
Thu 08:44:00 AM 33.5866 130.4502 248° West  Level Estimated
Thu 08:45:00 AM 33.5866 130.4502 248° West  Level Estimated
Thu 08:46:00 AM 33.5866 130.4502 248° West  Level Estimated
Thu 08:47:00 AM 33.5866 130.4502 248° West  Level Estimated
Thu 08:48:00 AM 33.5866 130.4502 248° West  Level Estimated
Thu 08:49:00 AM 33.5866 130.4502 248° West  Level Estimated
Thu 08:50:00 AM 33.5866 130.4502 248° West  Level Estimated
Thu 08:51:00 AM 33.5866 130.4502 248° West  Level Estimated
Thu 08:52:00 AM 33.5866 130.4502 248° West  Level Estimated
Thu 08:53:00 AM 33.5866 130.4502 248° West  Level Estimated
Thu 08:54:00 AM 33.5866 130.4502 248° West  Level Estimated

Login

Don't have an account? Register now (free) for customized features, flight alerts, and more!